CST,Max TemperatureF,Mean TemperatureF,Min TemperatureF,Max Dew PointF,MeanDew PointF,Min DewpointF,Max Humidity, Mean Humidity, Min Humidity, Max Sea Level PressureIn, Mean Sea Level PressureIn, Min Sea Level PressureIn, Max VisibilityMiles, Mean VisibilityMiles, Min VisibilityMiles, Max Wind SpeedMPH, Mean Wind SpeedMPH, Max Gust SpeedMPH,PrecipitationIn, CloudCover, Events, WindDirDegrees
2014-1-1,26,19,12,20,14,8,84,78,71,30.29,30.17,29.98,10,8,1,20,7,24,0.02,8,Snow,360
2014-1-2,33,24,15,23,20,12,88,79,65,30.26,30.19,30.04,10,10,7,15,4,21,0.00,3,,180
2014-1-3,59,41,23,33,25,20,87,61,29,30.03,29.67,29.44,10,10,10,23,14,33,0.00,1,,241
2014-1-4,38,24,11,31,11,-2,82,61,37,30.19,29.98,29.67,10,10,3,28,14,39,0.00,6,Snow,350
2014-1-5,10,1,-8,2,-8,-23,76,63,47,30.46,30.34,30.19,10,8,1,31,11,36,0.00,5,Snow,341
2014-1-6,19,4,-10,8,-10,-20,66,52,29,30.39,30.25,29.98,10,10,10,22,7,26,0.00,1,,297
2014-1-7,44,30,17,28,18,8,91,61,35,30.10,29.99,29.90,10,10,2,15,6,18,0.00,4,Snow,311
2014-1-8,32,26,20,25,22,18,91,84,73,30.21,30.13,30.10,10,8,2,15,5,22,0.01,6,Snow,154
2014-1-9,41,30,19,25,22,16,89,76,51,30.09,29.86,29.69,10,10,7,22,14,28,0.00,2,,196
2014-1-10,44,35,26,28,25,22,89,72,50,29.69,29.60,29.56,10,9,5,18,8,25,0.00,5,,285
2014-1-11,52,40,29,28,24,20,83,54,28,29.87,29.72,29.52,10,10,10,22,11,30,0.00,1,,263
2014-1-12,55,44,32,30,27,22,82,52,31,29.78,29.57,29.45,10,10,10,23,9,31,0.00,1,,290
2014-1-13,49,36,24,34,25,20,87,63,37,29.84,29.78,29.72,10,10,10,32,10,43,0.00,3,Rain,284
2014-1-14,42,34,26,32,21,14,89,64,45,30.26,30.14,29.83,10,10,0,34,22,45,0.00,3,Snow,323
2014-1-15,53,37,21,30,25,18,86,63,33,30.21,29.97,29.81,10,10,10,22,8,31,0.00,6,,270
2014-1-16,41,33,24,31,18,11,79,54,30,30.19,30.02,29.89,10,10,5,51,25,62,0.00,2,Snow,323
2014-1-17,46,32,18,24,18,13,85,60,29,30.18,30.02,29.85,10,10,10,13,8,16,0.00,2,,279
2014-1-18,41,34,27,25,22,17,67,56,47,30.10,29.97,29.81,10,10,10,41,18,54,0.00,3,,306
2014-1-19,63,47,31,23,20,14,69,43,15,29.96,29.87,29.80,10,10,10,21,10,26,0.00,0,,284
2014-1-20,43,26,9,24,16,3,78,57,33,30.41,30.16,29.90,10,10,10,40,12,59,0.00,2,,331
2014-1-21,54,30,5,25,13,0,82,61,17,30.40,30.13,29.94,10,10,10,29,8,41,0.00,2,,288
2014-1-22,33,17,1,26,11,-8,84,65,53,30.53,30.24,30.08,10,9,2,23,12,33,0.00,5,Snow,348
2014-1-23,26,10,-7,10,-6,-16,76,54,20,30.67,30.52,30.21,10,10,10,16,7,23,0.00,0,,252
2014-1-24,54,36,19,33,20,8,62,42,32,30.21,29.99,29.86,10,10,10,37,15,50,0.00,5,Rain,293
2014-1-25,56,47,38,35,31,24,83,58,34,30.05,29.90,29.68,10,10,7,29,18,40,0.00,5,Rain,297
2014-1-26,50,30,9,30,17,-5,79,54,37,30.25,29.86,29.68,10,10,2,37,17,47,0.00,3,Snow,321
2014-1-27,19,10,0,-4,-5,-9,74,53,31,30.34,30.28,30.24,10,10,10,15,7,28,0.00,2,,341
2014-1-28,25,12,0,1,-3,-7,77,55,29,30.29,30.20,30.04,10,10,10,16,4,24,0.00,2,,283
2014-1-29,55,30,6,17,6,-4,66,37,13,30.03,29.73,29.36,10,10,10,17,6,23,0.00,1,,235
2014-1-30,46,33,20,39,19,12,88,69,27,29.97,29.72,29.35,10,9,2,28,13,34,0.02,7,Rain-Snow,349
2014-1-31,25,20,15,17,15,13,89,79,69,29.98,29.90,29.81,10,8,2,15,5,18,0.00,7,Snow,158